Latest Weather Observations for Combienbar

IDV60801

Issued at 10:02 am EST Monday 3 August 2015 (issued every 30 minutes, with the page automatically refreshed every 10 minutes)

About weather observations | Map of weather stations | Latest weather observations for VIC | Other Formats
Station Details ID: 084143 Name: COMBIENBAR AWS Lat: -37.34 Lon: 149.02 Height: 640.0 m
Data from the previous 72 hours. | See also: Recent months at Combienbar
Date/Time
EST
Temp
°C
App
Temp
°C
Dew
Point
Rel
Hum
%
Delta-T
°C
Wind Press
QNH
hPa
Press
MSL
hPa
Rain
since 9 am
mm
Dir
 
Spd
km/h
Gust
km/h
Spd
kts
Gust
kts
03/10:00am 4.0 0.8 3.0 93 0.4 SW 9 15 5 8 1010.9 1011.1 0.4
03/09:30am 7.3 3.5 1.6 67 2.4 SW 11 22 6 12 1009.8 1009.9 0.0
03/09:00am 7.7 3.6 -0.3 57 3.3 SW 11 26 6 14 1009.2 1009.4 2.6
03/08:30am 7.5 2.5 -0.9 55 3.4 SW 15 28 8 15 1008.8 1008.9 2.6
03/08:00am 7.3 2.3 -1.1 55 3.3 WSW 15 41 8 22 1008.1 1008.2 2.6
03/07:30am 6.7 2.5 -1.0 58 3.0 SW 11 30 6 16 1007.6 1007.7 2.6
03/07:00am 6.7 2.1 -0.7 59 3.0 SW 13 33 7 18 1007.4 1007.5 2.6
03/06:30am 6.9 2.8 -0.3 60 2.9 WSW 11 33 6 18 1007.2 1007.3 2.6
03/06:00am 7.1 3.0 -0.4 59 3.0 WSW 11 24 6 13 1007.3 1007.4 2.6
03/05:30am 6.4 3.0 -0.3 62 2.7 SW 7 28 4 15 1007.3 1007.4 2.6
03/05:00am 6.7 2.6 -0.3 61 2.8 SW 11 30 6 16 1006.8 1006.9 2.6
03/04:30am 6.5 2.8 -0.2 62 2.7 SW 9 19 5 10 1007.3 1007.4 2.6
03/04:00am 6.5 3.7 -0.5 61 2.8 SSW 4 17 2 9 1007.0 1007.1 2.6
03/03:30am 6.7 4.2 -0.7 59 2.9 NNW 2 9 1 5 1007.0 1007.1 2.6
03/03:00am 6.7 3.9 -0.3 61 2.8 SSW 4 11 2 6 1006.9 1007.0 2.6
03/02:30am 7.1 3.8 0.1 61 2.8 W 7 28 4 15 1006.9 1007.0 2.6
03/02:00am 7.7 4.0 0.0 58 3.2 W 9 28 5 15 1007.1 1007.2 2.6
03/01:30am 7.4 3.4 0.2 60 2.9 W 11 32 6 17 1006.7 1006.8 2.6
03/01:00am 7.2 4.1 0.2 61 2.9 WSW 6 20 3 11 1007.1 1007.2 2.6
03/12:30am 7.0 3.3 0.0 61 2.8 WSW 9 30 5 16 1007.1 1007.2 2.6
03/12:00am 7.0 2.5 -0.2 60 2.9 W 13 33 7 18 1007.5 1007.6 2.6
 
Date/Time
EST
Temp
°C
App
Temp
°C
Dew
Point
Rel
Hum
%
Delta-T
°C
Wind Press
QNH
hPa
Press
MSL
hPa
Rain
since 9 am
mm
Dir
 
Spd
km/h
Gust
km/h
Spd
kts
Gust
kts
02/11:30pm 7.3 2.8 -0.6 57 3.2 NW 13 32 7 17 1008.0 1008.1 2.6
02/11:00pm 7.5 2.1 -1.2 54 3.5 NW 17 43 9 23 1008.0 1008.1 2.6
02/10:30pm 7.4 2.8 -1.3 54 3.4 NW 13 35 7 19 1008.7 1008.8 2.6
02/10:00pm 7.0 2.3 -1.7 54 3.4 NW 13 35 7 19 1009.4 1009.6 2.6
02/09:30pm 7.1 2.4 -2.1 52 3.5 WNW 13 35 7 19 1009.9 1010.0 2.6
02/09:00pm 6.9 1.4 -2.0 53 3.4 WNW 17 39 9 21 1010.0 1010.1 2.6
02/08:30pm 6.9 1.8 -2.3 52 3.5 W 15 43 8 23 1009.7 1009.8 2.6
02/08:00pm 6.9 2.9 -2.3 52 3.5 W 9 22 5 12 1009.8 1009.9 2.6
02/07:30pm 7.6 3.5 -2.7 48 3.9 WNW 9 22 5 12 1009.7 1009.8 2.6
02/07:00pm 7.2 4.0 -0.7 57 3.2 SW 6 19 3 10 1009.8 1009.9 2.6
02/06:30pm 8.3 4.7 -2.3 47 4.1 NNE 7 22 4 12 1009.2 1009.4 2.6
02/06:00pm 8.8 5.4 -1.9 47 4.2 NW 6 11 3 6 1008.7 1008.8 2.6
02/05:30pm 8.9 5.8 0.4 55 3.5 NNW 6 13 3 7 1008.3 1008.4 2.6
02/05:00pm 8.5 5.7 2.3 65 2.7 NW 6 26 3 14 1007.9 1007.9 2.6
02/04:30pm 7.8 5.8 6.1 89 0.8 N 6 15 3 8 1007.6 1007.7 2.6
02/04:00pm 7.3 6.4 6.2 93 0.5 CALM 0 4 0 2 1008.1 1008.2 2.6
02/03:30pm 7.9 7.0 6.0 88 0.9 CALM 0 2 0 1 1007.9 1007.9 2.6
02/03:00pm 8.5 7.2 6.0 84 1.2 S 2 6 1 3 1007.4 1007.5 2.6
02/02:30pm 9.9 8.4 6.6 80 1.6 W 4 9 2 5 1007.2 1007.3 2.6
02/02:00pm 8.4 7.9 7.8 96 0.3 CALM 0 6 0 3 1007.2 1007.3 2.6
02/01:30pm 8.4 7.6 8.1 98 0.1 NNE 2 4 1 2 1007.3 1007.4 2.6
02/01:00pm 7.3 6.2 7.0 98 0.1 E 2 6 1 3 1007.9 1007.9 2.6
02/12:30pm 6.5 4.5 6.2 98 0.1 NNE 6 7 3 4 1008.1 1008.2 2.6
02/12:00pm 5.7 4.7 5.4 98 0.1 CALM 0 0 0 0 1009.4 1009.6 2.2
02/11:30am 5.0 3.8 4.6 97 0.2 CALM 0 0 0 0 1010.0 1010.1 2.0
02/11:00am 5.2 4.0 4.8 97 0.2 CALM 0 0 0 0 1010.3 1010.4 1.8
02/10:30am 4.8 3.6 4.4 97 0.2 CALM 0 0 0 0 1010.7 1010.9 1.2
02/10:00am 4.6 3.3 4.2 97 0.2 CALM 0 0 0 0 1010.8 1011.0 0.6
02/09:30am 4.5 3.2 4.1 97 0.2 CALM 0 0 0 0 1010.9 1011.1 0.2
02/09:00am 4.7 3.4 4.3 97 0.2 CALM 0 0 0 0 1011.0 1011.2 8.6
02/08:30am 4.5 3.2 4.1 97 0.2 CALM 0 0 0 0 1011.5 1011.6 7.8
02/08:00am 4.7 3.4 4.3 97 0.2 CALM 0 0 0 0 1011.3 1011.4 7.6
02/07:30am 4.6 3.3 4.2 97 0.2 CALM 0 0 0 0 1010.9 1011.1 7.4
02/07:00am 4.4 3.1 4.0 97 0.2 CALM 0 0 0 0 1010.7 1010.9 7.4
02/06:30am 4.6 3.3 4.2 97 0.2 CALM 0 0 0 0 1010.9 1011.1 7.4
02/06:00am 5.2 4.0 4.8 97 0.2 CALM 0 0 0 0 1010.9 1011.1 7.4
02/05:30am 5.1 3.9 4.7 97 0.2 CALM 0 0 0 0 1011.4 1011.5 7.4
02/05:00am 5.0 3.4 4.6 97 0.2 NE 2 4 1 2 1011.5 1011.6 7.4
02/04:30am 4.8 3.6 4.4 97 0.2 CALM 0 0 0 0 1011.9 1012.1 7.2
02/04:00am 4.8 3.6 4.4 97 0.2 CALM 0 6 0 3 1012.3 1012.5 7.2
02/03:30am 4.7 3.1 4.3 97 0.2 NNE 2 6 1 3 1013.0 1013.1 7.2
02/03:00am 4.6 3.3 4.2 97 0.2 CALM 0 0 0 0 1013.4 1013.6 7.0
02/02:30am 4.6 3.3 4.2 97 0.2 CALM 0 2 0 1 1014.0 1014.2 6.6
02/02:00am 4.4 3.1 4.0 97 0.2 CALM 0 0 0 0 1014.3 1014.5 6.6
02/01:30am 4.4 3.1 4.0 97 0.2 CALM 0 0 0 0 1014.3 1014.5 6.4
02/01:00am 4.4 3.1 4.0 97 0.2 CALM 0 0 0 0 1014.3 1014.5 6.2
02/12:30am 4.4 3.1 4.0 97 0.2 CALM 0 0 0 0 1014.8 1015.0 6.2
02/12:00am 4.5 3.2 4.1 97 0.2 CALM 0 0 0 0 1015.2 1015.4 6.2
 
Date/Time
EST
Temp
°C
App
Temp
°C
Dew
Point
Rel
Hum
%
Delta-T
°C
Wind Press
QNH
hPa
Press
MSL
hPa
Rain
since 9 am
mm
Dir
 
Spd
km/h
Gust
km/h
Spd
kts
Gust
kts
01/11:30pm 4.4 3.1 4.0 97 0.2 CALM 0 0 0 0 1014.9 1015.1 6.2
01/11:00pm 4.7 3.4 4.3 97 0.2 CALM 0 0 0 0 1015.6 1015.8 6.0
01/10:30pm 4.6 2.9 4.2 97 0.2 ESE 2 6 1 3 1014.4 1014.6 6.0
01/10:00pm 4.7 3.4 4.3 97 0.2 CALM 0 0 0 0 1015.6 1015.8 6.0
01/09:30pm 4.9 3.7 4.5 97 0.2 CALM 0 0 0 0 1015.6 1015.8 6.0
01/09:00pm 4.9 3.7 4.5 97 0.2 CALM 0 4 0 2 1015.4 1015.6 6.0
01/08:30pm 5.2 4.0 4.8 97 0.2 CALM 0 4 0 2 1015.7 1015.9 6.0
01/08:00pm 5.3 4.2 4.9 97 0.2 CALM 0 0 0 0 1015.4 1015.6 6.0
01/07:30pm 5.1 3.9 4.7 97 0.2 CALM 0 0 0 0 1015.4 1015.6 6.0
01/07:00pm 5.1 3.9 4.7 97 0.2 CALM 0 0 0 0 1015.2 1015.4 6.0
01/06:30pm 5.0 3.8 4.6 97 0.2 CALM 0 0 0 0 1014.8 1015.0 5.8
01/06:00pm 5.1 3.9 4.7 97 0.2 CALM 0 2 0 1 1014.7 1014.9 5.6
01/05:30pm 5.2 4.0 4.8 97 0.2 CALM 0 4 0 2 1014.3 1014.5 5.4
01/05:00pm 5.7 4.6 5.3 97 0.2 CALM 0 2 0 1 1014.0 1014.2 5.2
01/04:30pm 5.8 4.8 5.4 97 0.2 CALM 0 0 0 0 1013.7 1013.9 5.0
01/04:00pm 6.0 4.6 5.6 97 0.2 SW 2 6 1 3 1013.8 1014.0 4.6
01/03:30pm 6.2 4.5 5.8 97 0.2 SSW 4 6 2 3 1013.4 1013.6 4.2
01/03:00pm 6.8 5.2 6.4 97 0.2 SW 4 7 2 4 1012.7 1012.9 3.8
01/02:30pm 7.4 5.5 6.8 96 0.3 SW 6 9 3 5 1012.0 1012.2 3.0
01/02:00pm 8.1 6.4 7.5 96 0.3 SSW 6 9 3 5 1011.7 1011.8 2.2
01/01:30pm 8.7 7.4 7.8 94 0.4 SW 4 7 2 4 1011.4 1011.5 1.2
01/01:00pm 9.7 8.4 7.6 87 1.0 SW 4 7 2 4 1011.0 1011.2 0.2
01/12:30pm 12.5 11.1 7.4 71 2.6 SW 4 6 2 3 1010.4 1010.5 0.0
01/12:00pm 12.8 10.8 6.2 64 3.3 SW 6 19 3 10 1010.4 1010.5 0.0
01/11:30am 12.9 11.3 6.3 64 3.3 SSW 4 7 2 4 1010.7 1010.9 0.0
01/11:00am 14.2 12.4 5.6 56 4.2 WNW 4 9 2 5 1010.5 1010.6 0.0
01/10:30am 15.2 13.6 6.5 56 4.4 W 4 13 2 7 1010.2 1010.3 0.0
01/10:00am 14.6 12.4 5.4 54 4.5 SSE 6 17 3 9 1009.4 1009.6 0.0
01/09:30am 13.2 10.6 4.4 55 4.2 W 7 19 4 10 1009.2 1009.6 0.0
01/09:00am 12.2 9.5 3.9 57 3.9 N 7 26 4 14 1008.6 1009.0 0.0
01/08:30am 11.3 8.6 3.8 60 3.5 W 7 26 4 14 1009.7 1010.1 0.0
01/08:00am 10.7 7.6 3.5 61 3.3 NW 9 26 5 14 1009.2 1009.6 0.0
01/07:30am 10.2 7.0 3.0 61 3.2 NNW 9 24 5 13 1009.2 1009.6 0.0
01/07:00am 8.6 5.7 2.4 65 2.7 NNE 7 22 4 12 1009.4 1009.8 0.0
01/06:30am 7.9 5.4 1.5 64 2.7 NNW 4 9 2 5 1010.4 1010.8 0.0
01/06:00am 7.7 5.2 1.3 64 2.7 NE 4 15 2 8 1010.5 1010.9 0.0
01/05:30am 6.8 4.1 0.3 63 2.7 NNE 4 7 2 4 1010.8 1011.2 0.0
01/05:00am 8.3 5.0 0.1 56 3.4 N 7 24 4 13 1011.2 1011.6 0.0
01/04:30am 8.6 4.5 -0.4 53 3.7 NNW 11 24 6 13 1011.2 1011.6 0.0
01/04:00am 8.6 4.7 -1.5 49 4.0 NNW 9 22 5 12 1010.9 1011.4 0.0
01/03:30am 8.0 4.4 -2.0 49 3.9 NNW 7 20 4 11 1011.3 1011.7 0.0
01/03:00am 8.0 4.4 -3.5 44 4.3 WNW 6 19 3 10 1011.5 1011.9 0.0
01/02:30am 7.5 4.3 -3.6 45 4.1 SE 4 17 2 9 1011.6 1012.0 0.0
01/02:00am 7.2 3.7 -3.1 48 3.9 NW 6 20 3 11 1011.9 1012.3 0.0
01/01:30am 6.8 4.0 -3.4 48 3.8 W 2 7 1 4 1012.1 1012.5 0.0
01/01:00am 6.9 3.7 -3.1 49 3.8 ENE 4 9 2 5 1012.0 1012.4 0.0
01/12:30am 7.5 4.3 -3.4 46 4.1 SSW 4 11 2 6 1013.1 1013.5 0.0
01/12:00am 8.3 5.0 -4.8 39 4.8 SSE 4 11 2 6 1013.3 1013.7 0.0
 
Date/Time
EST
Temp
°C
App
Temp
°C
Dew
Point
Rel
Hum
%
Delta-T
°C
Wind Press
QNH
hPa
Press
MSL
hPa
Rain
since 9 am
mm
Dir
 
Spd
km/h
Gust
km/h
Spd
kts
Gust
kts
31/11:30pm 8.7 5.3 -5.2 37 5.1 SE 4 13 2 7 1013.7 1014.2 0.0
31/11:00pm 8.1 4.3 -3.4 44 4.3 E 7 15 4 8 1014.2 1014.7 0.0
31/10:30pm 7.5 3.5 -2.0 51 3.7 E 9 15 5 8 1014.8 1015.2 0.0
31/10:00pm 8.1 4.7 -2.0 49 3.9 E 6 17 3 9 1015.6 1016.1 0.0
31/09:30pm 7.9 5.0 -1.1 53 3.6 NNE 4 11 2 6 1015.8 1016.3 0.0
31/09:00pm 7.7 4.9 -0.5 56 3.3 NNE 4 9 2 5 1016.3 1016.8 0.0
31/08:30pm 7.0 4.7 0.5 63 2.7 SSW 2 6 1 3 1016.5 1017.0 0.0
31/08:00pm 7.1 4.6 1.4 67 2.4 NE 4 13 2 7 1016.7 1017.2 0.0
31/07:30pm 7.1 4.7 2.0 70 2.2 NNE 4 11 2 6 1016.6 1017.1 0.0
31/07:00pm 6.1 4.0 1.8 74 1.8 NNE 2 13 1 7 1016.5 1017.0 0.0
31/06:30pm 5.8 3.3 3.6 86 1.0 NNE 6 9 3 5 1016.4 1016.9 0.0
31/06:00pm 6.1 4.0 3.8 85 1.0 NNE 4 9 2 5 1016.6 1017.1 0.0
31/05:30pm 6.4 5.1 3.9 84 1.1 CALM 0 2 0 1 1016.9 1017.4 0.0
31/05:00pm 7.0 5.7 4.0 81 1.3 CALM 0 0 0 0 1017.1 1017.6 0.0
31/04:30pm 7.4 6.0 3.5 76 1.7 CALM 0 0 0 0 1017.2 1017.7 0.0
31/04:00pm 9.3 8.0 4.1 70 2.4 CALM 0 0 0 0 1017.5 1018.1 0.0
31/03:30pm 9.5 8.1 3.5 66 2.7 CALM 0 0 0 0 1017.5 1018.1 0.0
31/03:00pm 9.8 8.5 4.2 68 2.6 CALM 0 0 0 0 1017.9 1018.4 0.0
31/02:30pm 10.5 9.1 3.5 62 3.2 CALM 0 6 0 3 1017.9 1018.4 0.0
31/02:00pm 9.8 8.4 3.8 66 2.7 CALM 0 0 0 0 1017.7 1018.3 0.0
31/01:30pm 10.1 8.7 3.6 64 3.0 CALM 0 9 0 5 1018.0 1018.5 0.0
31/01:00pm 8.7 7.2 2.9 67 2.6 CALM 0 0 0 0 1018.6 1019.1 0.0
31/12:30pm 8.3 6.8 2.8 68 2.4 CALM 0 4 0 2 1019.1 1019.7 0.0
31/12:00pm 8.3 6.7 2.5 67 2.5 CALM 0 6 0 3 1019.6 1020.1 0.0
31/11:30am 7.5 5.9 2.6 71 2.1 CALM 0 0 0 0 1020.0 1020.5 0.0
31/11:00am 7.7 6.1 2.4 69 2.3 CALM 0 4 0 2 1020.2 1020.8 0.0
31/10:30am 6.4 4.7 1.9 73 1.9 CALM 0 6 0 3 1020.4 1021.0 0.0

Other Formats:

Comma delimited format used in spreadsheet applications
http://www.bom.gov.au/fwo/IDV60801/IDV60801.94914.axf

JavaScript Object Notation format (JSON) in row-major order
http://www.bom.gov.au/fwo/IDV60801/IDV60801.94914.json